Time,TemperatureF,DewpointF,PressureIn,WindDirection,WindDirectionDegrees,WindSpeedMPH,WindSpeedGustMPH,Humidity,HourlyPrecipIn,Conditions,Clouds,dailyrainin,SoftwareType,DateUTC
2013-08-26 00:13:00,78.0,67.0,29.99,North,-999,-999.0,-999.0,70,-99.99,,,-99.99,,2013-08-26 05:13:00,
2013-08-26 00:23:00,78.0,67.0,29.96,North,-999,-999.0,-999.0,69,-99.99,,,-99.99,,2013-08-26 05:23:00,
2013-08-26 00:43:00,77.0,66.0,29.96,North,-999,-999.0,-999.0,69,-99.99,,,-99.99,,2013-08-26 05:43:00,
2013-08-26 00:52:00,77.0,66.0,29.96,North,-999,-999.0,-999.0,69,-99.99,,,-99.99,,2013-08-26 05:52:00,
2013-08-26 01:12:00,77.0,66.0,29.96,North,-999,-999.0,-999.0,69,-99.99,,,-99.99,,2013-08-26 06:12:00,
2013-08-26 01:21:00,76.0,65.0,29.96,North,-999,-999.0,-999.0,68,-99.99,,,-99.99,,2013-08-26 06:21:00,
2013-08-26 01:42:00,76.0,65.0,29.96,North,-999,-999.0,-999.0,68,-99.99,,,-99.99,,2013-08-26 06:42:00,
2013-08-26 01:52:00,76.0,65.0,29.96,North,-999,-999.0,-999.0,68,-99.99,,,-99.99,,2013-08-26 06:52:00,
2013-08-26 02:11:00,75.0,64.0,29.96,North,-999,-999.0,-999.0,68,-99.99,,,-99.99,,2013-08-26 07:11:00,
2013-08-26 02:22:00,75.0,64.0,29.96,North,-999,-999.0,-999.0,69,-99.99,,,-99.99,,2013-08-26 07:22:00,
2013-08-26 02:42:00,75.0,64.0,29.96,North,-999,-999.0,-999.0,69,-99.99,,,-99.99,,2013-08-26 07:42:00,
2013-08-26 02:52:00,75.0,64.0,29.96,North,-999,-999.0,-999.0,69,-99.99,,,-99.99,,2013-08-26 07:52:00,
2013-08-26 03:12:00,75.0,64.0,29.96,North,-999,-999.0,-999.0,69,-99.99,,,-99.99,,2013-08-26 08:12:00,
2013-08-26 03:22:00,74.0,64.0,29.96,North,-999,-999.0,-999.0,70,-99.99,,,-99.99,,2013-08-26 08:22:00,
2013-08-26 03:42:00,73.0,63.0,29.96,North,-999,-999.0,-999.0,71,-99.99,,,-99.99,,2013-08-26 08:42:00,
2013-08-26 03:52:00,73.0,63.0,29.96,North,-999,-999.0,-999.0,72,-99.99,,,-99.99,,2013-08-26 08:52:00,
2013-08-26 04:11:00,73.0,64.0,29.96,North,-999,-999.0,-999.0,73,-99.99,,,-99.99,,2013-08-26 09:11:00,
2013-08-26 04:21:00,73.0,65.0,29.96,North,-999,-999.0,-999.0,75,-99.99,,,-99.99,,2013-08-26 09:21:00,
2013-08-26 04:43:00,73.0,65.0,29.96,North,-999,-999.0,-999.0,76,-99.99,,,-99.99,,2013-08-26 09:43:00,
2013-08-26 04:54:00,73.0,65.0,29.96,North,-999,-999.0,-999.0,76,-99.99,,,-99.99,,2013-08-26 09:54:00,
2013-08-26 05:12:00,73.0,65.0,29.96,North,-999,-999.0,-999.0,76,-99.99,,,-99.99,,2013-08-26 10:12:00,
2013-08-26 05:23:00,74.0,66.0,29.96,North,-999,-999.0,-999.0,76,-99.99,,,-99.99,,2013-08-26 10:23:00,
2013-08-26 05:42:00,73.0,65.0,29.96,North,-999,-999.0,-999.0,76,-99.99,,,-99.99,,2013-08-26 10:42:00,
2013-08-26 05:52:00,73.0,65.0,29.96,North,-999,-999.0,-999.0,77,-99.99,,,-99.99,,2013-08-26 10:52:00,
2013-08-26 06:12:00,73.0,66.0,29.96,North,-999,-999.0,-999.0,78,-99.99,,,-99.99,,2013-08-26 11:12:00,
2013-08-26 06:22:00,73.0,66.0,29.99,North,-999,-999.0,-999.0,78,-99.99,,,-99.99,,2013-08-26 11:22:00,
2013-08-26 06:52:00,73.0,66.0,29.99,North,-999,-999.0,-999.0,78,-99.99,,,-99.99,,2013-08-26 11:52:00,
2013-08-26 07:12:00,73.0,66.0,29.99,North,-999,-999.0,-999.0,79,-99.99,,,-99.99,,2013-08-26 12:12:00,
2013-08-26 07:21:00,73.0,66.0,29.99,North,-999,-999.0,-999.0,78,-99.99,,,-99.99,,2013-08-26 12:21:00,
2013-08-26 07:52:00,75.0,67.0,29.99,North,-999,-999.0,-999.0,77,-99.99,,,-99.99,,2013-08-26 12:52:00,
2013-08-26 08:11:00,75.0,67.0,29.99,North,-999,-999.0,-999.0,77,-99.99,,,-99.99,,2013-08-26 13:11:00,
2013-08-26 08:42:00,80.0,69.0,29.99,North,-999,-999.0,-999.0,69,-99.99,,,-99.99,,2013-08-26 13:42:00,
2013-08-26 08:52:00,81.0,70.0,29.99,North,-999,-999.0,-999.0,69,-99.99,,,-99.99,,2013-08-26 13:52:00,
2013-08-26 09:11:00,82.0,70.0,29.99,North,-999,-999.0,-999.0,68,-99.99,,,-99.99,,2013-08-26 14:11:00,
2013-08-26 09:22:00,84.0,71.0,29.99,North,-999,-999.0,-999.0,66,-99.99,,,-99.99,,2013-08-26 14:22:00,
2013-08-26 09:52:00,85.0,71.0,29.99,North,-999,-999.0,-999.0,64,-99.99,,,-99.99,,2013-08-26 14:52:00,
2013-08-26 10:12:00,84.0,70.0,29.99,North,-999,-999.0,-999.0,64,-99.99,,,-99.99,,2013-08-26 15:12:00,
2013-08-26 10:22:00,84.0,70.0,29.99,North,-999,-999.0,-999.0,64,-99.99,,,-99.99,,2013-08-26 15:22:00,
2013-08-26 10:47:00,87.0,72.0,29.99,North,-999,-999.0,-999.0,62,-99.99,,,-99.99,,2013-08-26 15:47:00,
2013-08-26 10:59:00,87.0,71.0,29.99,North,-999,-999.0,-999.0,59,-99.99,,,-99.99,,2013-08-26 15:59:00,
2013-08-26 11:17:00,87.0,72.0,29.99,North,-999,-999.0,-999.0,61,-99.99,,,-99.99,,2013-08-26 16:17:00,
2013-08-26 11:29:00,87.0,71.0,29.96,North,-999,-999.0,-999.0,60,-99.99,,,-99.99,,2013-08-26 16:29:00,
2013-08-26 11:48:00,88.0,72.0,29.96,North,-999,-999.0,-999.0,60,-99.99,,,-99.99,,2013-08-26 16:48:00,
2013-08-26 11:59:00,88.0,72.0,29.96,North,-999,-999.0,-999.0,60,-99.99,,,-99.99,,2013-08-26 16:59:00,
2013-08-26 12:12:00,89.0,73.0,29.96,North,-999,-999.0,-999.0,59,-99.99,,,-99.99,,2013-08-26 17:12:00,
2013-08-26 12:24:00,89.0,73.0,29.96,North,-999,-999.0,-999.0,59,-99.99,,,-99.99,,2013-08-26 17:24:00,
2013-08-26 12:43:00,89.0,73.0,29.96,North,-999,-999.0,-999.0,59,-99.99,,,-99.99,,2013-08-26 17:43:00,
2013-08-26 12:53:00,89.0,72.0,29.93,North,-999,-999.0,-999.0,58,-99.99,,,-99.99,,2013-08-26 17:53:00,
2013-08-26 13:12:00,90.0,73.0,29.93,North,-999,-999.0,-999.0,58,-99.99,,,-99.99,,2013-08-26 18:12:00,
2013-08-26 13:22:00,90.0,73.0,29.93,North,-999,-999.0,-999.0,57,-99.99,,,-99.99,,2013-08-26 18:22:00,
2013-08-26 13:52:00,91.0,74.0,29.90,North,-999,-999.0,-999.0,58,-99.99,,,-99.99,,2013-08-26 18:52:00,
2013-08-26 14:11:00,92.0,75.0,29.90,North,-999,-999.0,-999.0,57,-99.99,,,-99.99,,2013-08-26 19:11:00,
2013-08-26 14:22:00,92.0,74.0,29.90,North,-999,-999.0,-999.0,56,-99.99,,,-99.99,,2013-08-26 19:22:00,
2013-08-26 14:42:00,93.0,75.0,29.87,North,-999,-999.0,-999.0,56,-99.99,,,-99.99,,2013-08-26 19:42:00,
2013-08-26 14:52:00,93.0,74.0,29.87,North,-999,-999.0,-999.0,55,-99.99,,,-99.99,,2013-08-26 19:52:00,
2013-08-26 15:11:00,93.0,74.0,29.87,North,-999,-999.0,-999.0,54,-99.99,,,-99.99,,2013-08-26 20:11:00,
2013-08-26 15:21:00,93.0,74.0,29.87,North,-999,-999.0,-999.0,55,-99.99,,,-99.99,,2013-08-26 20:21:00,
2013-08-26 15:43:00,94.0,75.0,29.87,North,-999,-999.0,-999.0,54,-99.99,,,-99.99,,2013-08-26 20:43:00,
2013-08-26 15:52:00,94.0,74.0,29.87,North,-999,-999.0,-999.0,53,-99.99,,,-99.99,,2013-08-26 20:52:00,
2013-08-26 16:11:00,94.0,74.0,29.87,North,-999,-999.0,-999.0,53,-99.99,,,-99.99,,2013-08-26 21:11:00,
2013-08-26 16:22:00,94.0,74.0,29.87,North,-999,-999.0,-999.0,53,-99.99,,,-99.99,,2013-08-26 21:22:00,
2013-08-26 16:55:00,93.0,74.0,29.84,North,-999,-999.0,-999.0,54,-99.99,,,-99.99,,2013-08-26 21:55:00,
2013-08-26 17:16:00,93.0,74.0,29.84,North,-999,-999.0,-999.0,55,-99.99,,,-99.99,,2013-08-26 22:16:00,
2013-08-26 17:26:00,93.0,74.0,29.84,North,-999,-999.0,-999.0,54,-99.99,,,-99.99,,2013-08-26 22:26:00,
2013-08-26 17:42:00,93.0,74.0,29.84,North,-999,-999.0,-999.0,55,-99.99,,,-99.99,,2013-08-26 22:42:00,
2013-08-26 17:53:00,93.0,75.0,29.84,North,-999,-999.0,-999.0,56,-99.99,,,-99.99,,2013-08-26 22:53:00,
2013-08-26 18:12:00,92.0,75.0,29.84,North,-999,-999.0,-999.0,57,-99.99,,,-99.99,,2013-08-26 23:12:00,
2013-08-26 18:22:00,92.0,75.0,29.84,North,-999,-999.0,-999.0,57,-99.99,,,-99.99,,2013-08-26 23:22:00,
2013-08-26 18:52:00,91.0,75.0,29.84,North,-999,-999.0,-999.0,59,-99.99,,,-99.99,,2013-08-26 23:52:00,
2013-08-26 19:11:00,90.0,74.0,29.84,North,-999,-999.0,-999.0,59,-99.99,,,-99.99,,2013-08-27 00:11:00,
2013-08-26 19:21:00,89.0,73.0,29.84,North,-999,-999.0,-999.0,60,-99.99,,,-99.99,,2013-08-27 00:21:00,
2013-08-26 19:42:00,88.0,73.0,29.84,North,-999,-999.0,-999.0,62,-99.99,,,-99.99,,2013-08-27 00:42:00,
2013-08-26 19:52:00,88.0,73.0,29.84,North,-999,-999.0,-999.0,62,-99.99,,,-99.99,,2013-08-27 00:52:00,
2013-08-26 20:12:00,86.0,73.0,29.84,North,-999,-999.0,-999.0,66,-99.99,,,-99.99,,2013-08-27 01:12:00,
2013-08-26 20:22:00,84.0,72.0,29.84,North,-999,-999.0,-999.0,67,-99.99,,,-99.99,,2013-08-27 01:22:00,
2013-08-26 20:42:00,84.0,72.0,29.84,North,-999,-999.0,-999.0,68,-99.99,,,-99.99,,2013-08-27 01:42:00,
2013-08-26 20:52:00,82.0,71.0,29.84,North,-999,-999.0,-999.0,70,-99.99,,,-99.99,,2013-08-27 01:52:00,
2013-08-26 21:12:00,82.0,72.0,29.84,North,-999,-999.0,-999.0,72,-99.99,,,-99.99,,2013-08-27 02:12:00,
2013-08-26 21:21:00,81.0,72.0,29.84,North,-999,-999.0,-999.0,74,-99.99,,,-99.99,,2013-08-27 02:21:00,
2013-08-26 21:42:00,81.0,72.0,29.84,North,-999,-999.0,-999.0,74,-99.99,,,-99.99,,2013-08-27 02:42:00,
2013-08-26 21:52:00,80.0,72.0,29.84,North,-999,-999.0,-999.0,76,-99.99,,,-99.99,,2013-08-27 02:52:00,
2013-08-26 22:12:00,80.0,72.0,29.84,North,-999,-999.0,-999.0,76,-99.99,,,-99.99,,2013-08-27 03:12:00,
2013-08-26 22:22:00,80.0,71.0,29.84,North,-999,-999.0,-999.0,75,-99.99,,,-99.99,,2013-08-27 03:22:00,
2013-08-26 22:44:00,80.0,71.0,29.84,North,-999,-999.0,-999.0,75,-99.99,,,-99.99,,2013-08-27 03:44:00,
2013-08-26 22:58:00,81.0,72.0,29.84,North,-999,-999.0,-999.0,75,-99.99,,,-99.99,,2013-08-27 03:58:00,
2013-08-26 23:08:00,81.0,72.0,29.84,North,-999,-999.0,-999.0,75,-99.99,,,-99.99,,2013-08-27 04:08:00,
2013-08-26 23:18:00,81.0,72.0,29.84,North,-999,-999.0,-999.0,75,-99.99,,,-99.99,,2013-08-27 04:18:00,
2013-08-26 23:47:00,80.0,71.0,29.84,North,-999,-999.0,-999.0,75,-99.99,,,-99.99,,2013-08-27 04:47:00,
2013-08-26 23:54:00,80.0,71.0,29.84,North,-999,-999.0,-999.0,75,-99.99,,,-99.99,,2013-08-27 04:54:00,